Time,TemperatureF,DewpointF,PressureIn,WindDirection,WindDirectionDegrees,WindSpeedMPH,WindSpeedGustMPH,Humidity,HourlyPrecipIn,Conditions,Clouds,dailyrainin,SoftwareType,DateUTC
2013-04-10 00:00:00,45.3,23.5,-100.00,North,-999,0.0,2.7,42,0.00,,,-99.99,FreeWX-Wi 1.01,2013-04-10 04:00:00,
2013-04-10 00:10:00,45.1,23.4,-100.00,North,-999,0.0,3.6,42,0.00,,,-99.99,FreeWX-Wi 1.01,2013-04-10 04:10:00,
2013-04-10 00:20:00,45.0,23.2,-100.00,North,-999,0.0,5.4,42,0.00,,,-99.99,FreeWX-Wi 1.01,2013-04-10 04:20:00,
2013-04-10 00:30:00,44.8,23.2,-100.00,North,-999,0.0,4.0,42,0.00,,,-99.99,FreeWX-Wi 1.01,2013-04-10 04:30:00,
2013-04-10 00:40:00,44.6,23.5,-100.00,SW,236,1.0,4.0,43,0.00,,,-99.99,FreeWX-Wi 1.01,2013-04-10 04:40:00,
2013-04-10 00:50:00,44.4,23.9,-100.00,WSW,244,1.0,4.0,44,0.00,,,-99.99,FreeWX-Wi 1.01,2013-04-10 04:50:00,
2013-04-10 01:00:00,44.4,23.9,-100.00,WSW,243,1.0,3.6,44,0.00,,,-99.99,FreeWX-Wi 1.01,2013-04-10 05:00:00,
2013-04-10 01:10:00,44.6,23.5,-100.00,North,-999,0.0,4.0,43,0.00,,,-99.99,FreeWX-Wi 1.01,2013-04-10 05:10:00,
2013-04-10 01:20:00,44.6,23.5,-100.00,North,-999,0.0,0.0,43,0.00,,,-99.99,FreeWX-Wi 1.01,2013-04-10 05:20:00,
2013-04-10 01:40:00,44.6,23.5,-100.00,North,-999,0.0,3.1,43,0.00,,,-99.99,FreeWX-Wi 1.01,2013-04-10 05:40:00,
2013-04-10 01:50:00,44.8,23.7,-100.00,North,-999,0.0,0.0,43,0.00,,,-99.99,FreeWX-Wi 1.01,2013-04-10 05:50:00,
2013-04-10 02:00:00,44.8,23.7,-100.00,North,-999,0.0,0.0,43,0.00,,,-99.99,FreeWX-Wi 1.01,2013-04-10 06:00:00,
2013-04-10 02:10:00,44.8,23.7,-100.00,North,-999,0.0,0.0,43,0.00,,,-99.99,FreeWX-Wi 1.01,2013-04-10 06:10:00,
2013-04-10 02:20:00,44.8,23.7,-100.00,North,-999,0.0,0.0,43,0.00,,,-99.99,FreeWX-Wi 1.01,2013-04-10 06:20:00,
2013-04-10 02:30:00,45.0,23.9,-100.00,North,-999,0.0,0.0,43,0.00,,,-99.99,FreeWX-Wi 1.01,2013-04-10 06:30:00,
2013-04-10 02:40:00,45.0,23.9,-100.00,North,-999,0.0,0.0,43,0.00,,,-99.99,FreeWX-Wi 1.01,2013-04-10 06:40:00,
2013-04-10 02:50:00,45.0,23.9,-100.00,North,-999,0.0,0.0,43,0.00,,,-99.99,FreeWX-Wi 1.01,2013-04-10 06:50:00,
2013-04-10 03:00:00,44.8,24.3,-100.00,North,-999,0.0,0.0,44,0.00,,,-99.99,FreeWX-Wi 1.01,2013-04-10 07:00:00,
2013-04-10 03:10:00,44.6,24.6,-100.00,North,-999,0.0,0.0,45,0.00,,,-99.99,FreeWX-Wi 1.01,2013-04-10 07:10:00,
2013-04-10 03:20:00,44.2,25.3,-100.00,North,-999,0.0,0.0,47,0.00,,,-99.99,FreeWX-Wi 1.01,2013-04-10 07:20:00,
2013-04-10 03:30:00,44.1,26.6,-100.00,North,-999,0.0,0.0,50,0.00,,,-99.99,FreeWX-Wi 1.01,2013-04-10 07:30:00,
2013-04-10 03:40:00,43.9,27.3,-100.00,North,-999,0.0,0.0,52,0.00,,,-99.99,FreeWX-Wi 1.01,2013-04-10 07:40:00,
2013-04-10 03:50:00,43.7,27.3,-100.00,North,-999,0.0,0.0,52,0.00,,,-99.99,FreeWX-Wi 1.01,2013-04-10 07:50:00,
2013-04-10 04:00:00,43.5,27.5,-100.00,North,-999,0.0,0.0,53,0.00,,,-99.99,FreeWX-Wi 1.01,2013-04-10 08:00:00,
2013-04-10 04:10:00,43.2,27.7,-100.00,North,-999,0.0,0.0,54,0.00,,,-99.99,FreeWX-Wi 1.01,2013-04-10 08:10:00,
2013-04-10 04:20:00,43.0,27.9,-100.00,North,-999,0.0,0.0,55,0.00,,,-99.99,FreeWX-Wi 1.01,2013-04-10 08:20:00,
2013-04-10 04:30:00,42.8,27.7,-100.00,North,-999,0.0,0.0,55,0.00,,,-99.99,FreeWX-Wi 1.01,2013-04-10 08:30:00,
2013-04-10 04:40:00,42.8,28.2,-100.00,North,-999,0.0,0.0,56,0.00,,,-99.99,FreeWX-Wi 1.01,2013-04-10 08:40:00,
2013-04-10 04:50:00,43.0,28.4,-100.00,North,-999,0.0,0.0,56,0.00,,,-99.99,FreeWX-Wi 1.01,2013-04-10 08:50:00,
2013-04-10 05:00:00,43.0,28.4,-100.00,North,-999,0.0,0.0,56,0.00,,,-99.99,FreeWX-Wi 1.01,2013-04-10 09:00:00,
2013-04-10 05:10:00,43.0,28.8,-100.00,North,-999,0.0,0.0,57,0.00,,,-99.99,FreeWX-Wi 1.01,2013-04-10 09:10:00,
2013-04-10 05:20:00,43.0,28.8,-100.00,North,-999,0.0,0.0,57,0.00,,,-99.99,FreeWX-Wi 1.01,2013-04-10 09:20:00,
2013-04-10 05:30:00,43.0,28.8,-100.00,North,-999,0.0,0.0,57,0.00,,,-99.99,FreeWX-Wi 1.01,2013-04-10 09:30:00,
2013-04-10 05:40:00,43.0,28.8,-100.00,North,-999,0.0,0.0,57,0.00,,,-99.99,FreeWX-Wi 1.01,2013-04-10 09:40:00,
2013-04-10 05:50:00,43.2,28.9,-100.00,North,-999,0.0,0.0,57,0.00,,,-99.99,FreeWX-Wi 1.01,2013-04-10 09:50:00,
2013-04-10 06:00:00,43.2,28.9,-100.00,North,-999,0.0,0.0,57,0.00,,,-99.99,FreeWX-Wi 1.01,2013-04-10 10:00:00,
2013-04-10 06:10:00,43.2,29.5,-100.00,North,-999,0.0,0.0,58,0.00,,,-99.99,FreeWX-Wi 1.01,2013-04-10 10:10:00,
2013-04-10 06:20:00,43.2,29.5,-100.00,North,-999,0.0,0.0,58,0.00,,,-99.99,FreeWX-Wi 1.01,2013-04-10 10:20:00,
2013-04-10 06:30:00,43.2,29.5,-100.00,North,-999,0.0,0.0,58,0.00,,,-99.99,FreeWX-Wi 1.01,2013-04-10 10:30:00,
2013-04-10 06:40:00,43.2,29.5,-100.00,North,-999,0.0,0.0,58,0.00,,,-99.99,FreeWX-Wi 1.01,2013-04-10 10:40:00,
2013-04-10 06:50:00,43.2,29.5,-100.00,North,-999,0.0,0.0,58,0.00,,,-99.99,FreeWX-Wi 1.01,2013-04-10 10:50:00,
2013-04-10 07:00:00,43.3,30.0,-100.00,North,-999,0.0,0.0,59,0.00,,,-99.99,FreeWX-Wi 1.01,2013-04-10 11:00:00,
2013-04-10 07:10:00,43.3,30.0,-100.00,North,-999,0.0,0.0,59,0.00,,,-99.99,FreeWX-Wi 1.01,2013-04-10 11:10:00,
2013-04-10 07:20:00,43.3,30.4,-100.00,North,-999,0.0,0.0,60,0.00,,,-99.99,FreeWX-Wi 1.01,2013-04-10 11:20:00,
2013-04-10 07:30:00,43.5,30.6,-100.00,North,-999,0.0,0.0,60,0.00,,,-99.99,FreeWX-Wi 1.01,2013-04-10 11:30:00,
2013-04-10 07:40:00,43.7,30.7,-100.00,North,-999,0.0,0.0,60,0.00,,,-99.99,FreeWX-Wi 1.01,2013-04-10 11:40:00,
2013-04-10 07:50:00,44.1,31.5,-100.00,North,-999,0.0,0.0,61,0.00,,,-99.99,FreeWX-Wi 1.01,2013-04-10 11:50:00,
2013-04-10 08:00:00,44.4,31.8,-100.00,North,-999,0.0,0.0,61,0.00,,,-99.99,FreeWX-Wi 1.01,2013-04-10 12:00:00,
2013-04-10 08:10:00,44.8,32.2,-100.00,North,-999,0.0,0.0,61,0.00,,,-99.99,FreeWX-Wi 1.01,2013-04-10 12:10:00,
2013-04-10 08:20:00,45.0,32.4,-100.00,North,-999,0.0,0.0,61,0.00,,,-99.99,FreeWX-Wi 1.01,2013-04-10 12:20:00,
2013-04-10 08:30:00,45.3,32.7,-100.00,North,-999,0.0,0.0,61,0.00,,,-99.99,FreeWX-Wi 1.01,2013-04-10 12:30:00,
2013-04-10 08:40:00,45.5,32.9,-100.00,North,-999,0.0,0.0,61,0.00,,,-99.99,FreeWX-Wi 1.01,2013-04-10 12:40:00,
2013-04-10 08:50:00,45.9,32.7,-100.00,North,-999,0.0,0.0,60,0.00,,,-99.99,FreeWX-Wi 1.01,2013-04-10 12:50:00,
2013-04-10 09:00:00,46.0,32.9,-100.00,North,-999,0.0,0.0,60,0.00,,,-99.99,FreeWX-Wi 1.01,2013-04-10 13:00:00,
2013-04-10 09:10:00,46.4,32.4,-100.00,North,-999,0.0,0.0,58,0.00,,,-99.99,FreeWX-Wi 1.01,2013-04-10 13:10:00,
2013-04-10 09:20:00,47.1,32.7,-100.00,North,-999,0.0,0.0,57,0.00,,,-99.99,FreeWX-Wi 1.01,2013-04-10 13:20:00,
2013-04-10 09:30:00,47.8,32.9,-100.00,North,-999,0.0,0.0,56,0.00,,,-99.99,FreeWX-Wi 1.01,2013-04-10 13:30:00,
2013-04-10 09:40:00,48.4,32.5,-100.00,North,-999,0.0,0.0,54,0.00,,,-99.99,FreeWX-Wi 1.01,2013-04-10 13:40:00,
2013-04-10 09:50:00,48.7,31.8,-100.00,North,-999,0.0,0.0,52,0.00,,,-99.99,FreeWX-Wi 1.01,2013-04-10 13:50:00,
2013-04-10 10:00:00,48.9,31.6,-100.00,North,-999,0.0,2.2,51,0.00,,,-99.99,FreeWX-Wi 1.01,2013-04-10 14:00:00,
2013-04-10 10:10:00,48.9,30.6,-100.00,North,-999,0.0,0.0,49,0.00,,,-99.99,FreeWX-Wi 1.01,2013-04-10 14:10:00,
2013-04-10 10:20:00,48.9,30.0,-100.00,North,-999,0.0,0.0,48,0.00,,,-99.99,FreeWX-Wi 1.01,2013-04-10 14:20:00,
2013-04-10 10:30:00,49.1,30.2,-100.00,North,-999,0.0,0.0,48,0.00,,,-99.99,FreeWX-Wi 1.01,2013-04-10 14:30:00,
2013-04-10 10:40:00,49.6,29.7,-100.00,North,-999,0.0,0.0,46,0.00,,,-99.99,FreeWX-Wi 1.01,2013-04-10 14:40:00,
2013-04-10 10:50:00,51.1,30.0,-100.00,North,-999,0.0,0.0,44,0.00,,,-99.99,FreeWX-Wi 1.01,2013-04-10 14:50:00,
2013-04-10 11:00:00,51.6,29.3,-100.00,North,-999,0.0,0.0,42,0.00,,,-99.99,FreeWX-Wi 1.01,2013-04-10 15:00:00,
2013-04-10 11:10:00,51.8,28.9,-100.00,North,-999,0.0,0.0,41,0.00,,,-99.99,FreeWX-Wi 1.01,2013-04-10 15:10:00,
2013-04-10 11:20:00,51.8,28.2,-100.00,North,-999,0.0,3.1,40,0.00,,,-99.99,FreeWX-Wi 1.01,2013-04-10 15:20:00,
2013-04-10 11:30:00,51.8,28.2,-100.00,North,-999,0.0,0.0,40,0.00,,,-99.99,FreeWX-Wi 1.01,2013-04-10 15:30:00,
2013-04-10 11:40:00,51.8,28.2,-100.00,North,-999,0.0,3.6,40,0.00,,,-99.99,FreeWX-Wi 1.01,2013-04-10 15:40:00,
2013-04-10 11:50:00,51.8,28.2,-100.00,North,-999,0.0,0.0,40,0.00,,,-99.99,FreeWX-Wi 1.01,2013-04-10 15:50:00,
2013-04-10 12:00:00,52.3,28.8,-100.00,North,-999,0.0,6.3,40,0.00,,,-99.99,FreeWX-Wi 1.01,2013-04-10 16:00:00,
2013-04-10 12:10:00,52.5,25.7,-100.00,North,-999,0.0,0.0,35,0.00,,,-99.99,FreeWX-Wi 1.01,2013-04-10 16:10:00,
2013-04-10 12:20:00,52.9,27.3,-100.00,North,-999,0.0,0.0,37,0.00,,,-99.99,FreeWX-Wi 1.01,2013-04-10 16:20:00,
2013-04-10 12:30:00,53.6,25.9,-100.00,North,-999,0.0,0.0,34,0.00,,,-99.99,FreeWX-Wi 1.01,2013-04-10 16:30:00,
2013-04-10 12:40:00,54.3,26.6,-100.00,North,-999,0.0,0.0,34,0.00,,,-99.99,FreeWX-Wi 1.01,2013-04-10 16:40:00,
2013-04-10 12:50:00,54.9,27.0,-100.00,North,-999,0.0,0.0,34,0.00,,,-99.99,FreeWX-Wi 1.01,2013-04-10 16:50:00,
2013-04-10 13:00:00,55.4,26.1,-100.00,North,-999,0.0,0.0,32,0.00,,,-99.99,FreeWX-Wi 1.01,2013-04-10 17:00:00,
2013-04-10 13:10:00,56.1,26.6,-100.00,North,-999,0.0,0.0,32,0.00,,,-99.99,FreeWX-Wi 1.01,2013-04-10 17:10:00,
2013-04-10 13:20:00,56.3,26.8,-100.00,North,-999,0.0,4.0,32,0.00,,,-99.99,FreeWX-Wi 1.01,2013-04-10 17:20:00,
2013-04-10 13:30:00,56.7,24.8,-100.00,North,-999,0.0,2.7,29,0.00,,,-99.99,FreeWX-Wi 1.01,2013-04-10 17:30:00,
2013-04-10 13:40:00,56.8,25.0,-100.00,North,-999,0.0,3.6,29,0.00,,,-99.99,FreeWX-Wi 1.01,2013-04-10 17:40:00,
2013-04-10 13:50:00,57.2,25.2,-100.00,North,-999,0.0,0.0,29,0.00,,,-99.99,FreeWX-Wi 1.01,2013-04-10 17:50:00,
2013-04-10 14:00:00,57.6,25.5,-100.00,North,-999,0.0,0.0,29,0.00,,,-99.99,FreeWX-Wi 1.01,2013-04-10 18:00:00,
2013-04-10 14:10:00,58.1,26.1,-100.00,North,-999,0.0,4.9,29,0.00,,,-99.99,FreeWX-Wi 1.01,2013-04-10 18:10:00,
2013-04-10 14:20:00,58.3,26.2,-100.00,North,-999,0.0,0.0,29,0.00,,,-99.99,FreeWX-Wi 1.01,2013-04-10 18:20:00,
2013-04-10 14:30:00,59.0,25.9,-100.00,North,-999,0.0,4.9,28,0.00,,,-99.99,FreeWX-Wi 1.01,2013-04-10 18:30:00,
2013-04-10 14:40:00,59.4,26.2,-100.00,North,-999,0.0,0.0,28,0.00,,,-99.99,FreeWX-Wi 1.01,2013-04-10 18:40:00,
2013-04-10 14:50:00,59.9,26.8,-100.00,North,-999,0.0,0.0,28,0.00,,,-99.99,FreeWX-Wi 1.01,2013-04-10 18:50:00,
2013-04-10 15:00:00,60.4,25.3,-100.00,North,-999,0.0,0.0,26,0.00,,,-99.99,FreeWX-Wi 1.01,2013-04-10 19:00:00,
2013-04-10 15:11:00,60.3,25.2,-100.00,North,-999,0.0,0.0,26,0.00,,,-99.99,FreeWX-Wi 1.01,2013-04-10 19:11:00,
2013-04-10 15:31:00,59.5,24.6,-100.00,North,-999,0.0,0.0,26,0.00,,,-99.99,FreeWX-Wi 1.01,2013-04-10 19:31:00,
2013-04-10 15:41:00,60.1,25.2,-100.00,North,-999,0.0,0.0,26,0.00,,,-99.99,FreeWX-Wi 1.01,2013-04-10 19:41:00,
2013-04-10 15:51:00,60.3,25.2,-100.00,North,-999,0.0,3.1,26,0.00,,,-99.99,FreeWX-Wi 1.01,2013-04-10 19:51:00,
2013-04-10 16:01:00,60.3,25.2,-100.00,North,-999,0.0,3.6,26,0.00,,,-99.99,FreeWX-Wi 1.01,2013-04-10 20:01:00,
2013-04-10 16:11:00,59.9,25.0,-100.00,North,-999,0.0,4.0,26,0.00,,,-99.99,FreeWX-Wi 1.01,2013-04-10 20:11:00,
2013-04-10 16:21:00,59.0,24.1,-100.00,North,-999,0.0,3.1,26,0.00,,,-99.99,FreeWX-Wi 1.01,2013-04-10 20:21:00,
2013-04-10 16:31:00,58.5,23.7,-100.00,North,-999,0.0,3.6,26,0.00,,,-99.99,FreeWX-Wi 1.01,2013-04-10 20:31:00,
2013-04-10 16:41:00,57.7,23.2,-100.00,North,-999,0.0,3.6,26,0.00,,,-99.99,FreeWX-Wi 1.01,2013-04-10 20:41:00,
2013-04-10 16:51:00,57.6,23.0,-100.00,North,-999,0.0,0.0,26,0.00,,,-99.99,FreeWX-Wi 1.01,2013-04-10 20:51:00,
2013-04-10 17:01:00,56.8,23.2,-100.00,North,-999,0.0,2.7,27,0.00,,,-99.99,FreeWX-Wi 1.01,2013-04-10 21:01:00,
2013-04-10 17:11:00,56.1,22.6,-100.00,North,-999,0.0,3.6,27,0.00,,,-99.99,FreeWX-Wi 1.01,2013-04-10 21:11:00,
2013-04-10 17:21:00,55.2,21.9,-100.00,North,-999,0.0,2.7,27,0.00,,,-99.99,FreeWX-Wi 1.01,2013-04-10 21:21:00,
2013-04-10 17:31:00,54.1,20.8,-100.00,North,-999,0.0,3.6,27,0.00,,,-99.99,FreeWX-Wi 1.01,2013-04-10 21:31:00,
2013-04-10 17:41:00,53.2,20.1,-100.00,North,-999,0.0,5.4,27,0.00,,,-99.99,FreeWX-Wi 1.01,2013-04-10 21:41:00,
2013-04-10 17:51:00,52.9,19.8,-100.00,North,-999,0.0,0.0,27,0.00,,,-99.99,FreeWX-Wi 1.01,2013-04-10 21:51:00,
2013-04-10 18:01:00,52.3,19.4,-100.00,North,-999,0.0,3.6,27,0.00,,,-99.99,FreeWX-Wi 1.01,2013-04-10 22:01:00,
2013-04-10 18:11:00,51.8,18.9,-100.00,North,-999,0.0,2.7,27,0.00,,,-99.99,FreeWX-Wi 1.01,2013-04-10 22:11:00,
2013-04-10 18:31:00,51.3,19.2,-100.00,North,-999,0.0,5.8,28,0.00,,,-99.99,FreeWX-Wi 1.01,2013-04-10 22:31:00,
2013-04-10 18:41:00,51.3,20.8,-100.00,North,-999,0.0,0.0,30,0.00,,,-99.99,FreeWX-Wi 1.01,2013-04-10 22:41:00,
2013-04-10 18:51:00,51.1,20.7,-100.00,North,-999,0.0,0.0,30,0.00,,,-99.99,FreeWX-Wi 1.01,2013-04-10 22:51:00,
2013-04-10 19:01:00,50.7,20.5,-100.00,North,-999,0.0,0.0,30,0.00,,,-99.99,FreeWX-Wi 1.01,2013-04-10 23:01:00,
2013-04-10 19:11:00,50.0,23.4,-100.00,North,-999,0.0,0.0,35,0.00,,,-99.99,FreeWX-Wi 1.01,2013-04-10 23:11:00,
2013-04-10 19:21:00,49.3,26.6,-100.00,North,-999,0.0,0.0,41,0.00,,,-99.99,FreeWX-Wi 1.01,2013-04-10 23:21:00,
2013-04-10 19:31:00,48.9,26.8,-100.00,North,-999,0.0,0.0,42,0.00,,,-99.99,FreeWX-Wi 1.01,2013-04-10 23:31:00,
2013-04-10 19:41:00,48.4,27.0,-100.00,North,-999,0.0,0.0,43,0.00,,,-99.99,FreeWX-Wi 1.01,2013-04-10 23:41:00,
2013-04-10 19:51:00,48.0,28.2,-100.00,North,-999,0.0,0.0,46,0.00,,,-99.99,FreeWX-Wi 1.01,2013-04-10 23:51:00,
2013-04-10 20:01:00,47.8,29.1,-100.00,North,-999,0.0,0.0,48,0.00,,,-99.99,FreeWX-Wi 1.01,2013-04-11 00:01:00,
2013-04-10 20:11:00,47.5,30.2,-100.00,North,-999,0.0,0.0,51,0.00,,,-99.99,FreeWX-Wi 1.01,2013-04-11 00:11:00,
2013-04-10 20:21:00,47.5,30.2,-100.00,North,-999,0.0,0.0,51,0.00,,,-99.99,FreeWX-Wi 1.01,2013-04-11 00:21:00,
2013-04-10 20:31:00,47.5,30.7,-100.00,North,-999,0.0,0.0,52,0.00,,,-99.99,FreeWX-Wi 1.01,2013-04-11 00:31:00,
2013-04-10 20:41:00,47.3,30.6,-100.00,North,-999,0.0,0.0,52,0.00,,,-99.99,FreeWX-Wi 1.01,2013-04-11 00:41:00,
2013-04-10 21:01:00,47.3,31.1,-100.00,North,-999,0.0,0.0,53,0.00,,,-99.99,FreeWX-Wi 1.01,2013-04-11 01:01:00,
2013-04-10 21:11:00,47.1,31.3,-100.00,North,-999,0.0,0.0,54,0.00,,,-99.99,FreeWX-Wi 1.01,2013-04-11 01:11:00,
2013-04-10 21:21:00,46.9,31.6,-100.00,North,-999,0.0,0.0,55,0.00,,,-99.99,FreeWX-Wi 1.01,2013-04-11 01:21:00,
2013-04-10 21:41:00,47.1,32.2,-100.00,North,-999,0.0,0.0,56,0.00,,,-99.99,FreeWX-Wi 1.01,2013-04-11 01:41:00,
2013-04-10 21:51:00,47.1,32.2,-100.00,North,-999,0.0,0.0,56,0.00,,,-99.99,FreeWX-Wi 1.01,2013-04-11 01:51:00,
2013-04-10 22:01:00,47.1,32.7,-100.00,North,-999,0.0,0.0,57,0.00,,,-99.99,FreeWX-Wi 1.01,2013-04-11 02:01:00,
2013-04-10 22:11:00,47.3,32.9,-100.00,North,-999,0.0,0.0,57,0.00,,,-99.99,FreeWX-Wi 1.01,2013-04-11 02:11:00,
2013-04-10 22:31:00,47.5,33.4,-100.00,North,-999,0.0,0.0,58,0.00,,,-99.99,FreeWX-Wi 1.01,2013-04-11 02:31:00,
2013-04-10 22:41:00,47.3,33.3,-100.00,North,-999,0.0,0.0,58,0.00,,,-99.99,FreeWX-Wi 1.01,2013-04-11 02:41:00,
2013-04-10 22:51:00,47.5,33.8,-100.00,North,-999,0.0,0.0,59,0.00,,,-99.99,FreeWX-Wi 1.01,2013-04-11 02:51:00,
2013-04-10 23:01:00,47.7,34.0,-100.00,North,-999,0.0,0.0,59,0.00,,,-99.99,FreeWX-Wi 1.01,2013-04-11 03:01:00,
2013-04-10 23:11:00,47.3,33.6,-100.00,North,-999,0.0,0.0,59,0.00,,,-99.99,FreeWX-Wi 1.01,2013-04-11 03:11:00,
2013-04-10 23:21:00,47.3,34.2,-100.00,North,-999,0.0,0.0,60,0.00,,,-99.99,FreeWX-Wi 1.01,2013-04-11 03:21:00,
2013-04-10 23:31:00,47.5,34.3,-100.00,North,-999,0.0,0.0,60,0.00,,,-99.99,FreeWX-Wi 1.01,2013-04-11 03:31:00,
2013-04-10 23:41:00,47.5,34.3,-100.00,North,-999,0.0,0.0,60,0.00,,,-99.99,FreeWX-Wi 1.01,2013-04-11 03:41:00,
2013-04-10 23:51:00,47.3,34.2,-100.00,North,-999,0.0,0.0,60,0.00,,,-99.99,FreeWX-Wi 1.01,2013-04-11 03:51:00,